Time;durP1;ratioP1;P1;durP2;ratioP2;P2;SDS_P1;SDS_P2;PMS_P1;PMS_P2;Temp;Humidity;BMP_temperature;BMP_pressure;BME280_temperature;BME280_humidity;BME280_pressure;Samples;Min_cycle;Max_cycle;Signal;HPM_P1;HPM_P2
2022/10/28 00:00:15;;;;;;;;;;;;;;;8.40;90.78;101509.89;85862;1299;93314;-58
2022/10/28 00:02:42;;;;;;;;;;;;;;;8.39;90.66;101509.40;85843;1293;80503;-59
2022/10/28 00:04:49;;;;;;;;;;;;;;;8.40;90.69;101512.51;85862;1294;82552;-58
2022/10/28 00:06:56;;;;;;;;;;;;;;;8.39;90.73;101510.79;85879;1301;99070;-58
2022/10/28 00:09:04;;;;;;;;;;;;;;;8.37;90.77;101513.76;85867;1300;89234;-58
2022/10/28 00:11:13;;;;;;;;;;;;;;;8.37;90.79;101515.88;85899;1300;92639;-58
2022/10/28 00:13:20;;;;;;;;;;;;;;;8.37;90.80;101515.90;85882;1300;79986;-59
2022/10/28 00:15:27;;;;;;;;;;;;;;;8.35;90.82;101512.10;85921;1298;82414;-58
2022/10/28 00:17:35;;;;;;;;;;;;;;;8.36;90.75;101516.35;85853;1300;100858;-60
2022/10/28 00:19:42;;;;;;;;;;;;;;;8.33;90.68;101512.12;85897;1301;89050;-58
2022/10/28 00:21:49;;;;;;;;;;;;;;;8.31;90.68;101515.92;85878;1301;94089;-58
2022/10/28 00:23:56;;;;;;;;;;;;;;;8.28;90.68;101516.06;85887;1295;81214;-58
2022/10/28 00:26:12;;;;;;;;;;;;;;;8.26;90.64;101512.95;85923;1294;82262;-58
2022/10/28 00:28:19;;;;;;;;;;;;;;;8.24;90.63;101514.23;85847;1300;99666;-58
2022/10/28 00:30:26;;;;;;;;;;;;;;;8.21;90.62;101517.20;85864;1300;85188;-58
2022/10/28 00:32:36;;;;;;;;;;;;;;;8.17;90.65;101512.20;85861;1293;95574;-58
2022/10/28 00:34:44;;;;;;;;;;;;;;;8.12;90.72;101510.72;85834;1294;81940;-57
2022/10/28 00:36:51;;;;;;;;;;;;;;;8.08;90.73;101508.06;85840;1295;82494;-59
2022/10/28 00:39:00;;;;;;;;;;;;;;;8.05;90.71;101502.60;85873;1301;98285;-57
2022/10/28 00:41:10;;;;;;;;;;;;;;;8.02;90.75;101496.77;85886;1299;88445;-59
2022/10/28 00:43:17;;;;;;;;;;;;;;;8.02;90.77;101494.30;85849;1300;95366;-59
2022/10/28 00:45:27;;;;;;;;;;;;;;;8.01;90.78;101493.12;85839;1293;82043;-57
2022/10/28 00:47:44;;;;;;;;;;;;;;;8.00;90.87;101492.52;85895;1294;81891;-58
2022/10/28 00:49:54;;;;;;;;;;;;;;;7.98;90.87;101490.76;85859;1292;98420;-59
2022/10/28 00:52:05;;;;;;;;;;;;;;;7.97;90.92;101488.14;85890;1295;88684;-58
2022/10/28 00:54:13;;;;;;;;;;;;;;;7.97;90.90;101489.00;85881;1293;94322;-58
2022/10/28 00:56:21;;;;;;;;;;;;;;;7.98;90.90;101485.89;85913;1301;81905;-58
2022/10/28 00:58:28;;;;;;;;;;;;;;;7.97;90.87;101481.69;85921;1302;80551;-57
2022/10/28 01:00:38;;;;;;;;;;;;;;;7.93;90.92;101482.27;85950;1299;99470;-58
2022/10/28 01:02:48;;;;;;;;;;;;;;;7.90;90.89;101484.38;85926;1285;88436;-58
2022/10/28 01:04:55;;;;;;;;;;;;;;;7.94;90.96;101484.17;85885;1299;95112;-58
2022/10/28 01:07:03;;;;;;;;;;;;;;;7.95;91.05;101482.27;85900;1294;81784;-58
2022/10/28 01:09:10;;;;;;;;;;;;;;;7.92;91.00;101482.37;85916;1301;81303;-58
2022/10/28 01:11:40;;;;;;;;;;;;;;;7.90;90.97;101480.58;85853;1301;100043;-57
2022/10/28 01:13:57;;;;;;;;;;;;;;;7.93;90.97;101478.02;85847;1300;87650;-56
2022/10/28 01:16:14;;;;;;;;;;;;;;;7.90;91.05;101478.05;85869;1292;94195;-57
2022/10/28 01:18:29;;;;;;;;;;;;;;;7.94;91.12;101476.21;85846;1301;82292;-58
2022/10/28 01:21:13;;;;;;;;;;;;;;;7.91;91.20;101481.71;85878;1294;79921;-58
2022/10/28 01:23:26;;;;;;;;;;;;;;;7.97;91.31;101482.09;85892;1293;99134;-58
2022/10/28 01:25:58;;;;;;;;;;;;;;;8.02;91.28;101484.63;85859;1301;88723;-58
2022/10/28 01:28:16;;;;;;;;;;;;;;;8.03;91.36;101481.88;85841;1295;94439;-58
2022/10/28 01:30:28;;;;;;;;;;;;;;;7.99;91.35;101478.06;85841;1294;80310;-59
2022/10/28 01:32:40;;;;;;;;;;;;;;;8.02;91.30;101478.30;85862;1294;83072;-58
2022/10/28 01:34:56;;;;;;;;;;;;;;;8.05;91.42;101478.73;85874;1299;100074;-59
2022/10/28 01:37:11;;;;;;;;;;;;;;;8.09;91.54;101472.95;85884;1299;87237;-58
2022/10/28 01:39:28;;;;;;;;;;;;;;;8.08;91.41;101475.40;85899;1300;93807;-58
2022/10/28 01:41:43;;;;;;;;;;;;;;;8.08;91.48;101478.14;85931;1298;80474;-58
2022/10/28 01:43:58;;;;;;;;;;;;;;;8.08;91.41;101474.67;85844;1297;80867;-58
2022/10/28 01:46:08;;;;;;;;;;;;;;;8.10;91.48;101477.35;85963;1301;98210;-58
2022/10/28 01:48:19;;;;;;;;;;;;;;;8.13;91.51;101474.80;85907;1298;88740;-58
2022/10/28 01:50:29;;;;;;;;;;;;;;;8.13;91.46;101473.31;85968;1301;93978;-58
2022/10/28 01:52:40;;;;;;;;;;;;;;;8.16;91.59;101481.33;85938;1301;82186;-59
2022/10/28 01:54:50;;;;;;;;;;;;;;;8.20;91.65;101480.69;85907;1293;82828;-58
2022/10/28 01:57:01;;;;;;;;;;;;;;;8.17;91.56;101478.99;85865;1300;99782;-58
2022/10/28 01:59:11;;;;;;;;;;;;;;;8.16;91.49;101481.26;85821;1301;88716;-58
2022/10/28 02:01:21;;;;;;;;;;;;;;;8.15;91.52;101475.09;85855;1295;94808;-58
2022/10/28 02:03:28;;;;;;;;;;;;;;;8.13;91.60;101478.53;85836;1301;82485;-57
2022/10/28 02:05:43;;;;;;;;;;;;;;;8.13;91.58;101473.39;85865;1295;81810;-58
2022/10/28 02:07:53;;;;;;;;;;;;;;;8.14;91.63;101466.36;85872;1294;99403;-58
2022/10/28 02:10:13;;;;;;;;;;;;;;;8.18;91.61;101462.75;85850;1294;88763;-59
2022/10/28 02:12:25;;;;;;;;;;;;;;;8.22;91.67;101458.46;85845;1295;94822;-57
2022/10/28 02:14:58;;;;;;;;;;;;;;;8.25;91.86;101455.44;85822;1301;82486;-57
2022/10/28 02:17:12;;;;;;;;;;;;;;;8.29;92.07;101450.21;85914;1294;81638;-59
2022/10/28 02:19:31;;;;;;;;;;;;;;;8.40;92.32;101445.64;85834;1300;99199;-59
2022/10/28 02:21:49;;;;;;;;;;;;;;;8.47;92.49;101441.88;85895;1300;87634;-59
2022/10/28 02:24:02;;;;;;;;;;;;;;;8.59;92.90;101440.81;85895;1301;95120;-58
2022/10/28 02:26:15;;;;;;;;;;;;;;;8.70;92.95;101435.35;85970;1293;81356;-58
2022/10/28 02:28:24;;;;;;;;;;;;;;;8.75;92.87;101432.40;85913;1300;82608;-59
2022/10/28 02:30:37;;;;;;;;;;;;;;;8.78;93.00;101429.20;85934;1294;99357;-58
2022/10/28 02:32:47;;;;;;;;;;;;;;;8.84;93.17;101433.92;85917;1301;88536;-58
2022/10/28 02:34:59;;;;;;;;;;;;;;;8.89;93.26;101430.77;85940;1293;95004;-59
2022/10/28 02:37:11;;;;;;;;;;;;;;;8.97;93.49;101430.34;85923;1293;80962;-58
2022/10/28 02:39:22;;;;;;;;;;;;;;;9.07;93.62;101430.02;85900;1301;81322;-58
2022/10/28 02:41:35;;;;;;;;;;;;;;;9.12;93.76;101424.11;85911;1293;99854;-57
2022/10/28 02:43:43;;;;;;;;;;;;;;;9.23;93.92;101420.88;85894;1293;89090;-57
2022/10/28 02:45:53;;;;;;;;;;;;;;;9.29;94.23;101418.77;85882;1293;92391;-57
2022/10/28 02:48:02;;;;;;;;;;;;;;;9.40;94.41;101418.71;85816;1300;82645;-57
2022/10/28 02:50:15;;;;;;;;;;;;;;;9.48;94.55;101419.52;85841;1301;81774;-57
2022/10/28 02:52:25;;;;;;;;;;;;;;;9.47;94.27;101417.09;85846;1293;98476;-58
2022/10/28 02:54:36;;;;;;;;;;;;;;;9.45;94.22;101416.27;85837;1293;88057;-58
2022/10/28 02:56:49;;;;;;;;;;;;;;;9.43;94.07;101416.42;85869;1293;95830;-58
2022/10/28 02:58:56;;;;;;;;;;;;;;;9.37;93.99;101420.41;85847;1294;82668;-59
2022/10/28 03:01:04;;;;;;;;;;;;;;;9.36;93.91;101423.64;85857;1300;81722;-59
2022/10/28 03:03:11;;;;;;;;;;;;;;;9.36;93.83;101425.49;85864;1295;99871;-59
2022/10/28 03:05:19;;;;;;;;;;;;;;;9.31;93.68;101422.70;85851;1293;89166;-58
2022/10/28 03:07:26;;;;;;;;;;;;;;;9.29;93.57;101419.48;85876;1300;95558;-59
2022/10/28 03:09:34;;;;;;;;;;;;;;;9.27;93.57;101421.69;85872;1300;80937;-57
2022/10/28 03:11:41;;;;;;;;;;;;;;;9.24;93.51;101423.64;85914;1295;82007;-58
2022/10/28 03:13:49;;;;;;;;;;;;;;;9.19;93.42;101424.52;85930;1294;99487;-59
2022/10/28 03:15:56;;;;;;;;;;;;;;;9.12;93.25;101420.01;85904;1293;88485;-57
2022/10/28 03:18:03;;;;;;;;;;;;;;;9.06;93.09;101423.31;85892;1293;95755;-58
2022/10/28 03:20:14;;;;;;;;;;;;;;;8.99;93.01;101422.95;85911;1294;80964;-58
2022/10/28 03:22:23;;;;;;;;;;;;;;;8.93;92.92;101419.60;85912;1300;81573;-57
2022/10/28 03:24:30;;;;;;;;;;;;;;;8.87;92.89;101415.18;85862;1293;99763;-57
2022/10/28 03:26:40;;;;;;;;;;;;;;;8.81;92.77;101414.55;85885;1301;88947;-59
2022/10/28 03:28:50;;;;;;;;;;;;;;;8.75;92.79;101414.90;85836;1293;95189;-59
2022/10/28 03:30:57;;;;;;;;;;;;;;;8.74;92.82;101415.05;85869;1301;82789;-58
2022/10/28 03:33:04;;;;;;;;;;;;;;;8.72;92.77;101414.16;85848;1294;82297;-58
2022/10/28 03:35:12;;;;;;;;;;;;;;;8.68;92.70;101415.50;85824;1295;99608;-58
2022/10/28 03:37:19;;;;;;;;;;;;;;;8.60;92.67;101417.34;85872;1293;89144;-58
2022/10/28 03:39:29;;;;;;;;;;;;;;;8.55;92.61;101414.48;85814;1293;95652;-58
2022/10/28 03:41:36;;;;;;;;;;;;;;;8.57;92.65;101410.19;85853;1293;81778;-58
2022/10/28 03:43:44;;;;;;;;;;;;;;;8.59;92.70;101411.77;85870;1293;81436;-59
2022/10/28 03:45:51;;;;;;;;;;;;;;;8.60;92.77;101408.58;85910;1300;98770;-58
2022/10/28 03:47:59;;;;;;;;;;;;;;;8.65;93.10;101408.98;85855;1293;89035;-58
2022/10/28 03:50:07;;;;;;;;;;;;;;;8.72;93.40;101402.34;85846;1293;92725;-59
2022/10/28 03:52:14;;;;;;;;;;;;;;;8.79;93.62;101398.02;85880;1301;82478;-56
2022/10/28 03:54:21;;;;;;;;;;;;;;;8.85;93.67;101395.27;85882;1301;82952;-57
2022/10/28 03:56:29;;;;;;;;;;;;;;;8.86;93.55;101394.46;85912;1301;99890;-57
2022/10/28 03:58:36;;;;;;;;;;;;;;;8.85;93.46;101394.22;85923;1294;87874;-58
2022/10/28 04:00:45;;;;;;;;;;;;;;;8.82;93.35;101388.20;85917;1301;94981;-59
2022/10/28 04:02:54;;;;;;;;;;;;;;;8.79;93.24;101387.95;85928;1293;82359;-58
2022/10/28 04:05:01;;;;;;;;;;;;;;;8.83;93.41;101385.02;85900;1293;82370;-58
2022/10/28 04:07:11;;;;;;;;;;;;;;;8.89;93.57;101387.48;85890;1294;100288;-57
2022/10/28 04:09:18;;;;;;;;;;;;;;;8.91;93.72;101395.15;85874;1294;88384;-58
2022/10/28 04:11:25;;;;;;;;;;;;;;;8.88;93.62;101395.80;85854;1294;94472;-58
2022/10/28 04:13:33;;;;;;;;;;;;;;;8.84;93.56;101402.13;85842;1300;82036;-58
2022/10/28 04:15:40;;;;;;;;;;;;;;;8.81;93.40;101406.30;85871;1294;81201;-57
2022/10/28 04:17:47;;;;;;;;;;;;;;;8.77;93.25;101405.02;85828;1301;98399;-57
2022/10/28 04:19:54;;;;;;;;;;;;;;;8.73;93.12;101406.50;85854;1294;88332;-57
2022/10/28 04:22:01;;;;;;;;;;;;;;;8.69;93.08;101402.13;85843;1293;95669;-58
2022/10/28 04:24:14;;;;;;;;;;;;;;;8.62;92.91;101405.13;85827;1294;79931;-58
2022/10/28 04:26:22;;;;;;;;;;;;;;;8.55;92.89;101404.19;85857;1301;82674;-58
2022/10/28 04:28:29;;;;;;;;;;;;;;;8.49;92.81;101405.17;85835;1294;98918;-58
2022/10/28 04:30:36;;;;;;;;;;;;;;;8.45;92.75;101407.96;85852;1294;88747;-59
2022/10/28 04:32:45;;;;;;;;;;;;;;;8.41;92.74;101404.02;85834;1300;93947;-58
2022/10/28 04:34:52;;;;;;;;;;;;;;;8.38;92.83;101405.43;85837;1294;80783;-59
2022/10/28 04:36:59;;;;;;;;;;;;;;;8.30;92.74;101405.64;85908;1297;83205;-59
2022/10/28 04:39:06;;;;;;;;;;;;;;;8.26;92.72;101402.43;85854;1293;98408;-59
2022/10/28 04:41:14;;;;;;;;;;;;;;;8.23;92.65;101397.71;85868;1294;87374;-59
2022/10/28 04:43:22;;;;;;;;;;;;;;;8.19;92.63;101394.90;85895;1301;97024;-59
2022/10/28 04:45:29;;;;;;;;;;;;;;;8.15;92.64;101391.63;85896;1301;81505;-58
2022/10/28 04:47:36;;;;;;;;;;;;;;;8.10;92.62;101385.84;85888;1293;82514;-58
2022/10/28 04:49:44;;;;;;;;;;;;;;;8.08;92.67;101383.19;85887;1297;99357;-64
2022/10/28 04:51:51;;;;;;;;;;;;;;;8.07;92.62;101383.86;85868;1293;89188;-58
2022/10/28 04:53:58;;;;;;;;;;;;;;;8.06;92.75;101382.87;85849;1301;94703;-59
2022/10/28 04:56:06;;;;;;;;;;;;;;;8.09;92.80;101380.11;85852;1295;81971;-58
2022/10/28 04:58:13;;;;;;;;;;;;;;;8.09;92.92;101377.92;85861;1293;80082;-58
2022/10/28 05:00:21;;;;;;;;;;;;;;;8.10;92.97;101375.45;85865;1293;99770;-57
2022/10/28 05:02:28;;;;;;;;;;;;;;;8.09;92.97;101376.44;85882;1293;87325;-58
2022/10/28 05:04:36;;;;;;;;;;;;;;;8.10;92.99;101376.19;85839;1295;94394;-58
2022/10/28 05:06:43;;;;;;;;;;;;;;;8.10;93.01;101372.39;85873;1293;79920;-58
2022/10/28 05:08:51;;;;;;;;;;;;;;;8.12;93.03;101370.60;85830;1301;82025;-57
2022/10/28 05:10:58;;;;;;;;;;;;;;;8.15;93.03;101370.84;85851;1294;100146;-59
2022/10/28 05:13:05;;;;;;;;;;;;;;;8.16;93.12;101370.07;85836;1294;89345;-58
2022/10/28 05:15:14;;;;;;;;;;;;;;;8.16;93.11;101367.88;85852;1293;95205;-57
2022/10/28 05:17:22;;;;;;;;;;;;;;;8.14;92.99;101363.41;85847;1301;81455;-57
2022/10/28 05:19:29;;;;;;;;;;;;;;;8.13;92.92;101358.16;85861;1293;81184;-58
2022/10/28 05:21:37;;;;;;;;;;;;;;;8.14;93.23;101357.48;85917;1293;99610;-58
2022/10/28 05:23:43;;;;;;;;;;;;;;;8.18;93.31;101358.53;85831;1297;89057;-58
2022/10/28 05:25:51;;;;;;;;;;;;;;;8.20;93.24;101355.82;85898;1300;93865;-58
2022/10/28 05:28:01;;;;;;;;;;;;;;;8.19;93.27;101355.38;85875;1294;82497;-59
2022/10/28 05:30:12;;;;;;;;;;;;;;;8.17;93.34;101358.78;85911;1293;82561;-58
2022/10/28 05:32:20;;;;;;;;;;;;;;;8.20;93.40;101354.77;85908;1293;100248;-58
2022/10/28 05:34:27;;;;;;;;;;;;;;;8.19;93.33;101356.64;85865;1294;87854;-58
2022/10/28 05:36:34;;;;;;;;;;;;;;;8.19;93.27;101356.98;85853;1301;94802;-59
2022/10/28 05:38:44;;;;;;;;;;;;;;;8.20;93.19;101356.76;85853;1301;82756;-57
2022/10/28 05:40:51;;;;;;;;;;;;;;;8.18;93.15;101355.68;85861;1293;83270;-58
2022/10/28 05:43:00;;;;;;;;;;;;;;;8.15;93.23;101354.13;85837;1293;97727;-58
2022/10/28 05:45:10;;;;;;;;;;;;;;;8.15;93.13;101351.31;85854;1294;89342;-58
2022/10/28 05:47:17;;;;;;;;;;;;;;;8.15;93.25;101348.20;85847;1297;92671;-58
2022/10/28 05:49:25;;;;;;;;;;;;;;;8.26;93.39;101349.70;85840;1293;82097;-58
2022/10/28 05:51:32;;;;;;;;;;;;;;;8.40;93.93;101348.63;85862;1293;81476;-57
2022/10/28 05:53:40;;;;;;;;;;;;;;;8.56;94.17;101343.80;85850;1300;99200;-58
2022/10/28 05:55:47;;;;;;;;;;;;;;;8.66;94.30;101345.51;85916;1300;88973;-58
2022/10/28 05:57:55;;;;;;;;;;;;;;;8.76;94.48;101344.11;85881;1293;95526;-57
2022/10/28 06:00:02;;;;;;;;;;;;;;;8.87;94.51;101340.96;85864;1300;80293;-57
2022/10/28 06:02:15;;;;;;;;;;;;;;;8.97;94.58;101340.56;85919;1291;82454;-58
2022/10/28 06:04:26;;;;;;;;;;;;;;;9.10;94.91;101339.25;85916;1301;99171;-59
2022/10/28 06:06:34;;;;;;;;;;;;;;;9.22;95.22;101343.19;85891;1293;88256;-58
2022/10/28 06:08:42;;;;;;;;;;;;;;;9.32;95.02;101343.28;85926;1301;94020;-58
2022/10/28 06:10:53;;;;;;;;;;;;;;;9.38;94.85;101343.63;85899;1293;81631;-59
2022/10/28 06:13:01;;;;;;;;;;;;;;;9.40;94.57;101343.58;85900;1293;83098;-59
2022/10/28 06:15:10;;;;;;;;;;;;;;;9.42;94.42;101339.61;85821;1302;101459;-58
2022/10/28 06:17:17;;;;;;;;;;;;;;;9.43;94.56;101339.99;85898;1294;87136;-58
2022/10/28 06:19:27;;;;;;;;;;;;;;;9.50;94.61;101339.36;85848;1301;95099;-58
2022/10/28 06:21:33;;;;;;;;;;;;;;;9.61;94.67;101341.41;85871;1301;82008;-58
2022/10/28 06:23:40;;;;;;;;;;;;;;;9.67;94.66;101340.34;85855;1300;82751;-58
2022/10/28 06:25:48;;;;;;;;;;;;;;;9.69;94.43;101339.27;85881;1294;97190;-58
2022/10/28 06:27:57;;;;;;;;;;;;;;;9.76;94.45;101338.89;85842;1294;87686;-58
2022/10/28 06:30:09;;;;;;;;;;;;;;;9.80;94.47;101338.82;85864;1301;96068;-58
2022/10/28 06:32:16;;;;;;;;;;;;;;;9.87;94.53;101338.08;85848;1301;82106;-57
2022/10/28 06:34:24;;;;;;;;;;;;;;;9.95;94.45;101333.49;85854;1293;82171;-57
2022/10/28 06:36:31;;;;;;;;;;;;;;;10.04;94.61;101338.56;85337;1294;779607;-58
2022/10/28 06:38:38;;;;;;;;;;;;;;;10.19;94.71;101340.29;85889;1294;89128;-58
2022/10/28 06:40:46;;;;;;;;;;;;;;;10.31;94.72;101340.91;85867;1293;93944;-57
2022/10/28 06:43:00;;;;;;;;;;;;;;;10.47;94.81;101344.23;85876;1301;82098;-57
2022/10/28 06:45:09;;;;;;;;;;;;;;;10.59;94.85;101346.33;85868;1300;82974;-57
2022/10/28 06:47:23;;;;;;;;;;;;;;;10.70;94.71;101346.21;85913;1293;99479;-58
2022/10/28 06:49:33;;;;;;;;;;;;;;;10.92;94.88;101341.96;85887;1294;88400;-59
2022/10/28 06:51:43;;;;;;;;;;;;;;;11.24;94.91;101338.51;85920;1301;94151;-58
2022/10/28 06:53:52;;;;;;;;;;;;;;;11.51;94.93;101336.01;85883;1293;81877;-58
2022/10/28 06:55:59;;;;;;;;;;;;;;;11.69;95.07;101335.77;85895;1295;80688;-58
2022/10/28 06:58:06;;;;;;;;;;;;;;;11.85;95.08;101344.05;85894;1301;98386;-58
2022/10/28 07:00:22;;;;;;;;;;;;;;;12.00;94.75;101340.59;85930;1300;88804;-58
2022/10/28 07:02:35;;;;;;;;;;;;;;;12.14;94.84;101346.27;85851;1293;94973;-57
2022/10/28 07:04:46;;;;;;;;;;;;;;;12.26;94.70;101347.27;85856;1293;81935;-58
2022/10/28 07:06:56;;;;;;;;;;;;;;;12.35;94.62;101349.23;85917;1293;81165;-58
2022/10/28 07:09:06;;;;;;;;;;;;;;;12.50;94.66;101352.04;85890;1293;99778;-59
2022/10/28 07:11:14;;;;;;;;;;;;;;;12.60;94.46;101350.84;85877;1299;88685;-57
2022/10/28 07:13:23;;;;;;;;;;;;;;;12.65;94.12;101348.13;85877;1301;94047;-58
2022/10/28 07:15:30;;;;;;;;;;;;;;;12.78;93.88;101347.60;85845;1294;80918;-58
2022/10/28 07:17:38;;;;;;;;;;;;;;;12.92;93.69;101347.59;85847;1293;81546;-58
2022/10/28 07:19:45;;;;;;;;;;;;;;;12.98;93.55;101352.09;85866;1293;98518;-58
2022/10/28 07:21:52;;;;;;;;;;;;;;;13.11;93.44;101343.32;85866;1301;88372;-58
2022/10/28 07:24:00;;;;;;;;;;;;;;;13.70;94.01;101335.19;85841;1293;94791;-57
2022/10/28 07:26:07;;;;;;;;;;;;;;;14.69;93.64;101336.06;85824;1293;81436;-58
2022/10/28 07:28:14;;;;;;;;;;;;;;;15.09;92.51;101328.30;85888;1293;82509;-58
2022/10/28 07:30:22;;;;;;;;;;;;;;;15.53;91.87;101321.70;85860;1293;99825;-59
2022/10/28 07:32:34;;;;;;;;;;;;;;;15.90;91.05;101321.61;85908;1294;90509;-60
2022/10/28 07:34:45;;;;;;;;;;;;;;;15.88;89.65;101324.46;85910;1294;94974;-58
2022/10/28 07:36:54;;;;;;;;;;;;;;;15.81;89.37;101325.84;85935;1297;79002;-57
2022/10/28 07:39:03;;;;;;;;;;;;;;;15.84;88.74;101323.80;85962;1301;82630;-57
2022/10/28 07:41:12;;;;;;;;;;;;;;;15.71;88.22;101324.02;85925;1297;97517;-57
2022/10/28 07:43:21;;;;;;;;;;;;;;;15.72;88.30;101324.29;85918;1301;89115;-58
2022/10/28 07:45:32;;;;;;;;;;;;;;;15.99;87.85;101331.52;85892;1295;94346;-58
2022/10/28 07:47:40;;;;;;;;;;;;;;;16.69;87.52;101330.41;85851;1301;80266;-59
2022/10/28 07:49:50;;;;;;;;;;;;;;;17.74;87.05;101325.54;85884;1298;82497;-60
2022/10/28 07:51:58;;;;;;;;;;;;;;;18.72;85.97;101327.06;85886;1293;98154;-60
2022/10/28 07:54:09;;;;;;;;;;;;;;;19.02;84.66;101320.34;85855;1285;89272;-59
2022/10/28 07:56:16;;;;;;;;;;;;;;;18.94;83.77;101323.14;85897;1300;92154;-59
2022/10/28 07:58:25;;;;;;;;;;;;;;;19.25;82.32;101316.91;85830;1301;80650;-60
2022/10/28 08:00:32;;;;;;;;;;;;;;;19.09;81.64;101317.98;85857;1293;83307;-60
2022/10/28 08:02:39;;;;;;;;;;;;;;;18.88;81.59;101318.93;85862;1301;98014;-59
2022/10/28 08:04:47;;;;;;;;;;;;;;;18.58;81.35;101315.39;85858;1293;88377;-59
2022/10/28 08:06:54;;;;;;;;;;;;;;;17.98;81.35;101314.85;85841;1301;94876;-60
2022/10/28 08:09:01;;;;;;;;;;;;;;;17.57;81.41;101312.80;85837;1297;80569;-60
2022/10/28 08:11:15;;;;;;;;;;;;;;;17.24;81.51;101317.05;85875;1300;82471;-59
2022/10/28 08:13:22;;;;;;;;;;;;;;;17.06;81.62;101311.88;85872;1300;99427;-59
2022/10/28 08:15:32;;;;;;;;;;;;;;;16.93;81.86;101307.84;85860;1294;89570;-58
2022/10/28 08:17:41;;;;;;;;;;;;;;;16.78;82.15;101304.84;85854;1299;95932;-57
2022/10/28 08:19:51;;;;;;;;;;;;;;;16.65;82.27;101307.92;85867;1301;79783;-56
2022/10/28 08:22:01;;;;;;;;;;;;;;;16.58;82.43;101309.52;85857;1293;81524;-56
2022/10/28 08:24:09;;;;;;;;;;;;;;;16.56;82.45;101311.04;85854;1300;100203;-57
2022/10/28 08:26:17;;;;;;;;;;;;;;;16.47;82.56;101308.70;85897;1293;88987;-58
2022/10/28 08:28:27;;;;;;;;;;;;;;;16.43;82.59;101303.77;85890;1294;94318;-60
2022/10/28 08:30:35;;;;;;;;;;;;;;;16.38;82.47;101300.56;85856;1298;79869;-58
2022/10/28 08:32:42;;;;;;;;;;;;;;;16.27;82.53;101298.56;85855;1294;81864;-58
2022/10/28 08:34:49;;;;;;;;;;;;;;;16.16;82.65;101299.90;85855;1301;99603;-58
2022/10/28 08:36:57;;;;;;;;;;;;;;;16.08;82.84;101304.11;85862;1290;87649;-57
2022/10/28 08:39:05;;;;;;;;;;;;;;;16.05;82.92;101304.21;85858;1294;95590;-57
2022/10/28 08:41:21;;;;;;;;;;;;;;;15.94;83.01;101302.10;85843;1301;79880;-58
2022/10/28 08:43:38;;;;;;;;;;;;;;;15.90;82.91;101302.25;85850;1294;82018;-59
2022/10/28 08:45:50;;;;;;;;;;;;;;;15.84;83.00;101304.77;85878;1293;98749;-58
2022/10/28 08:48:08;;;;;;;;;;;;;;;15.80;83.10;101299.23;85856;1293;87411;-58
2022/10/28 08:50:18;;;;;;;;;;;;;;;15.88;83.37;101298.56;85854;1294;94873;-59
2022/10/28 08:52:33;;;;;;;;;;;;;;;15.96;83.41;101297.63;85830;1300;79503;-57
2022/10/28 08:54:46;;;;;;;;;;;;;;;16.24;83.71;101296.45;85847;1293;82432;-56
2022/10/28 08:56:55;;;;;;;;;;;;;;;16.58;83.62;101293.34;85894;1293;98643;-60
2022/10/28 08:59:06;;;;;;;;;;;;;;;17.06;83.34;101291.85;85904;1293;88114;-60
2022/10/28 09:01:21;;;;;;;;;;;;;;;17.60;83.21;101291.44;85867;1301;95037;-58
2022/10/28 09:03:30;;;;;;;;;;;;;;;18.11;82.40;101290.70;85789;1294;80029;-59
2022/10/28 09:05:39;;;;;;;;;;;;;;;18.61;81.64;101292.94;85902;1294;82474;-59
2022/10/28 09:07:46;;;;;;;;;;;;;;;19.23;81.29;101287.98;85898;1299;99886;-61
2022/10/28 09:09:55;;;;;;;;;;;;;;;19.64;80.17;101282.95;85921;1301;87890;-60
2022/10/28 09:12:23;;;;;;;;;;;;;;;19.94;79.48;101284.48;85911;1301;94000;-61
2022/10/28 09:14:44;;;;;;;;;;;;;;;20.65;79.06;101278.34;85900;1294;81232;-60
2022/10/28 09:16:55;;;;;;;;;;;;;;;21.24;77.97;101280.73;85923;1295;80923;-61
2022/10/28 09:19:10;;;;;;;;;;;;;;;21.01;76.16;101285.23;85863;1295;99301;-62
2022/10/28 09:21:26;;;;;;;;;;;;;;;20.36;75.37;101291.55;85885;1293;89200;-60
2022/10/28 09:23:36;;;;;;;;;;;;;;;20.05;75.55;101293.26;85865;1293;94373;-60
2022/10/28 09:25:48;;;;;;;;;;;;;;;20.41;76.09;101288.84;85892;1293;80665;-61
2022/10/28 09:28:21;;;;;;;;;;;;;;;20.77;75.81;101288.77;85835;1294;81104;-60
2022/10/28 09:30:44;;;;;;;;;;;;;;;21.24;75.53;101282.36;85891;1293;100200;-61
2022/10/28 09:32:58;;;;;;;;;;;;;;;21.73;75.02;101275.81;85833;1294;88201;-61
2022/10/28 09:35:08;;;;;;;;;;;;;;;22.09;74.28;101274.76;85862;1301;94379;-60
2022/10/28 09:37:19;;;;;;;;;;;;;;;22.36;73.53;101276.30;85865;1301;80471;-61
2022/10/28 09:39:31;;;;;;;;;;;;;;;22.54;72.60;101276.04;85893;1293;81648;-61
2022/10/28 09:41:42;;;;;;;;;;;;;;;22.63;71.81;101275.41;85850;1301;100674;-60
2022/10/28 09:43:53;;;;;;;;;;;;;;;22.52;71.27;101279.20;85886;1301;88397;-60
2022/10/28 09:46:06;;;;;;;;;;;;;;;22.05;70.31;101279.62;85875;1301;95785;-60
2022/10/28 09:48:19;;;;;;;;;;;;;;;21.49;70.47;101274.06;85861;1297;80090;-63
2022/10/28 09:50:29;;;;;;;;;;;;;;;21.33;70.93;101274.73;85849;1298;82342;-66
2022/10/28 09:52:43;;;;;;;;;;;;;;;21.42;70.82;101268.27;85872;1301;98486;-66
2022/10/28 09:54:54;;;;;;;;;;;;;;;21.12;71.01;101271.20;85883;1293;89372;-60
2022/10/28 09:57:08;;;;;;;;;;;;;;;21.03;70.82;101269.69;85892;1301;94810;-60
2022/10/28 09:59:21;;;;;;;;;;;;;;;20.88;70.98;101270.60;85914;1301;80807;-60
2022/10/28 10:01:32;;;;;;;;;;;;;;;20.63;70.91;101270.45;85924;1293;82237;-59
2022/10/28 10:03:40;;;;;;;;;;;;;;;20.40;70.80;101264.23;85887;1301;99538;-60
2022/10/28 10:05:55;;;;;;;;;;;;;;;20.20;71.11;101259.64;85908;1301;90588;-59
2022/10/28 10:08:05;;;;;;;;;;;;;;;19.97;71.24;101260.02;85858;1293;94135;-58
2022/10/28 10:10:21;;;;;;;;;;;;;;;19.80;71.45;101259.45;85874;1301;81002;-59
2022/10/28 10:12:29;;;;;;;;;;;;;;;19.60;71.75;101255.92;85868;1300;81841;-59
2022/10/28 10:14:39;;;;;;;;;;;;;;;19.51;71.87;101258.10;85885;1301;98789;-59
2022/10/28 10:16:49;;;;;;;;;;;;;;;19.40;72.34;101251.19;85866;1293;88850;-60
2022/10/28 10:18:57;;;;;;;;;;;;;;;19.28;72.45;101247.11;85862;1293;93204;-59
2022/10/28 10:21:06;;;;;;;;;;;;;;;19.20;72.73;101252.09;85883;1301;79520;-59
2022/10/28 10:23:27;;;;;;;;;;;;;;;19.12;73.13;101261.17;85869;1301;80381;-60
2022/10/28 10:25:34;;;;;;;;;;;;;;;18.97;73.26;101258.70;85870;1300;97866;-60
2022/10/28 10:27:43;;;;;;;;;;;;;;;18.94;73.35;101259.62;85882;1301;88997;-61
2022/10/28 10:29:52;;;;;;;;;;;;;;;18.90;73.52;101256.86;85854;1297;94986;-62
2022/10/28 10:32:15;;;;;;;;;;;;;;;18.84;73.65;101257.38;85847;1300;80131;-60
2022/10/28 10:34:25;;;;;;;;;;;;;;;18.74;73.75;101255.88;85852;1300;82712;-60
2022/10/28 10:36:33;;;;;;;;;;;;;;;18.64;73.91;101246.48;85900;1294;99269;-59
2022/10/28 10:38:47;;;;;;;;;;;;;;;18.62;74.32;101246.00;85880;1294;87930;-59
2022/10/28 10:40:56;;;;;;;;;;;;;;;18.65;74.31;101242.91;85889;1293;93600;-60
2022/10/28 10:43:25;;;;;;;;;;;;;;;18.59;74.34;101240.46;85870;1301;80087;-61
2022/10/28 10:45:33;;;;;;;;;;;;;;;18.56;74.49;101231.93;85906;1293;82355;-59
2022/10/28 10:47:42;;;;;;;;;;;;;;;18.51;74.43;101228.80;85901;1294;99499;-60
2022/10/28 10:49:50;;;;;;;;;;;;;;;18.37;74.27;101226.60;85897;1300;87557;-60
2022/10/28 10:51:59;;;;;;;;;;;;;;;18.31;74.56;101222.64;85899;1300;95884;-58
2022/10/28 10:54:13;;;;;;;;;;;;;;;18.27;74.69;101226.61;85907;1293;80458;-58
2022/10/28 10:56:28;;;;;;;;;;;;;;;18.21;74.76;101225.42;85925;1293;79699;-58
2022/10/28 10:58:38;;;;;;;;;;;;;;;18.15;74.87;101221.60;85913;1293;100413;-59
2022/10/28 11:00:49;;;;;;;;;;;;;;;18.17;75.08;101219.05;85924;1300;88643;-58
2022/10/28 11:02:57;;;;;;;;;;;;;;;18.17;75.31;101215.14;85895;1294;94336;-59
2022/10/28 11:05:07;;;;;;;;;;;;;;;18.12;75.43;101208.47;85883;1297;79182;-58
2022/10/28 11:07:16;;;;;;;;;;;;;;;18.08;75.38;101206.90;85905;1294;82722;-60
2022/10/28 11:09:29;;;;;;;;;;;;;;;18.07;75.47;101205.57;85918;1294;99960;-60
2022/10/28 11:11:38;;;;;;;;;;;;;;;18.10;75.68;101203.82;85877;1294;86002;-59
2022/10/28 11:13:45;;;;;;;;;;;;;;;18.13;75.79;101202.71;85862;1301;95704;-59